sensor_id;sensor_type;location;lat;lon;timestamp;P1;durP1;ratioP1;P2;durP2;ratioP2
58366;SDS011;57745;42.524;12.052;2022-12-18T00:01:01;5.82;;;2.88;;
58366;SDS011;57745;42.524;12.052;2022-12-18T00:03:32;5.20;;;2.45;;
58366;SDS011;57745;42.524;12.052;2022-12-18T00:05:58;4.53;;;2.58;;
58366;SDS011;57745;42.524;12.052;2022-12-18T00:08:23;5.03;;;2.55;;
58366;SDS011;57745;42.524;12.052;2022-12-18T00:10:49;4.15;;;2.70;;
58366;SDS011;57745;42.524;12.052;2022-12-18T00:13:14;4.18;;;2.20;;
58366;SDS011;57745;42.524;12.052;2022-12-18T00:15:41;4.32;;;2.47;;
58366;SDS011;57745;42.524;12.052;2022-12-18T00:18:07;3.55;;;2.20;;
58366;SDS011;57745;42.524;12.052;2022-12-18T00:20:36;5.20;;;2.53;;
58366;SDS011;57745;42.524;12.052;2022-12-18T00:23:03;4.88;;;2.60;;
58366;SDS011;57745;42.524;12.052;2022-12-18T00:25:29;3.78;;;2.03;;
58366;SDS011;57745;42.524;12.052;2022-12-18T00:27:55;3.70;;;1.92;;
58366;SDS011;57745;42.524;12.052;2022-12-18T00:30:20;4.97;;;2.10;;
58366;SDS011;57745;42.524;12.052;2022-12-18T00:32:46;4.97;;;2.03;;
58366;SDS011;57745;42.524;12.052;2022-12-18T00:35:11;3.90;;;1.95;;
58366;SDS011;57745;42.524;12.052;2022-12-18T00:37:37;3.67;;;1.80;;
58366;SDS011;57745;42.524;12.052;2022-12-18T00:40:05;4.60;;;1.88;;
58366;SDS011;57745;42.524;12.052;2022-12-18T00:42:32;2.60;;;1.60;;
58366;SDS011;57745;42.524;12.052;2022-12-18T00:45:16;4.07;;;1.77;;
58366;SDS011;57745;42.524;12.052;2022-12-18T00:47:42;3.47;;;1.73;;
58366;SDS011;57745;42.524;12.052;2022-12-18T00:50:07;3.20;;;1.67;;
58366;SDS011;57745;42.524;12.052;2022-12-18T00:52:34;2.92;;;1.70;;
58366;SDS011;57745;42.524;12.052;2022-12-18T00:54:59;3.83;;;1.70;;
58366;SDS011;57745;42.524;12.052;2022-12-18T00:57:25;4.22;;;2.00;;
58366;SDS011;57745;42.524;12.052;2022-12-18T00:59:50;3.05;;;1.58;;
58366;SDS011;57745;42.524;12.052;2022-12-18T01:02:15;4.68;;;2.08;;
58366;SDS011;57745;42.524;12.052;2022-12-18T01:04:41;4.13;;;1.90;;
58366;SDS011;57745;42.524;12.052;2022-12-18T01:07:06;3.20;;;2.10;;
58366;SDS011;57745;42.524;12.052;2022-12-18T01:09:32;4.28;;;1.90;;
58366;SDS011;57745;42.524;12.052;2022-12-18T01:11:57;2.95;;;1.70;;
58366;SDS011;57745;42.524;12.052;2022-12-18T01:14:24;4.10;;;2.15;;
58366;SDS011;57745;42.524;12.052;2022-12-18T01:16:49;3.65;;;1.70;;
58366;SDS011;57745;42.524;12.052;2022-12-18T01:19:15;4.43;;;1.88;;
58366;SDS011;57745;42.524;12.052;2022-12-18T01:21:40;3.53;;;1.80;;
58366;SDS011;57745;42.524;12.052;2022-12-18T01:24:06;2.80;;;1.40;;
58366;SDS011;57745;42.524;12.052;2022-12-18T01:26:32;2.30;;;1.70;;
58366;SDS011;57745;42.524;12.052;2022-12-18T01:28:57;4.30;;;1.92;;
58366;SDS011;57745;42.524;12.052;2022-12-18T01:31:24;5.55;;;1.95;;
58366;SDS011;57745;42.524;12.052;2022-12-18T01:33:51;3.58;;;2.00;;
58366;SDS011;57745;42.524;12.052;2022-12-18T01:36:21;5.03;;;2.10;;
58366;SDS011;57745;42.524;12.052;2022-12-18T01:38:52;2.70;;;1.80;;
58366;SDS011;57745;42.524;12.052;2022-12-18T01:41:19;3.25;;;1.52;;
58366;SDS011;57745;42.524;12.052;2022-12-18T01:46:16;3.20;;;1.60;;
58366;SDS011;57745;42.524;12.052;2022-12-18T01:48:42;2.70;;;1.63;;
58366;SDS011;57745;42.524;12.052;2022-12-18T01:51:10;2.38;;;1.40;;
58366;SDS011;57745;42.524;12.052;2022-12-18T01:53:37;3.40;;;1.65;;
58366;SDS011;57745;42.524;12.052;2022-12-18T01:56:05;2.30;;;1.30;;
58366;SDS011;57745;42.524;12.052;2022-12-18T02:01:22;3.63;;;1.80;;
58366;SDS011;57745;42.524;12.052;2022-12-18T02:03:48;3.75;;;2.15;;
58366;SDS011;57745;42.524;12.052;2022-12-18T02:06:16;4.43;;;2.28;;
58366;SDS011;57745;42.524;12.052;2022-12-18T02:08:48;3.67;;;2.50;;
58366;SDS011;57745;42.524;12.052;2022-12-18T02:14:18;3.95;;;2.25;;
58366;SDS011;57745;42.524;12.052;2022-12-18T02:16:58;3.38;;;2.47;;
58366;SDS011;57745;42.524;12.052;2022-12-18T02:19:48;3.15;;;2.42;;
58366;SDS011;57745;42.524;12.052;2022-12-18T02:27:54;4.68;;;2.35;;
58366;SDS011;57745;42.524;12.052;2022-12-18T02:30:26;4.32;;;2.58;;
58366;SDS011;57745;42.524;12.052;2022-12-18T02:32:54;3.25;;;2.10;;
58366;SDS011;57745;42.524;12.052;2022-12-18T02:35:24;4.63;;;2.10;;
58366;SDS011;57745;42.524;12.052;2022-12-18T02:37:52;3.53;;;2.10;;
58366;SDS011;57745;42.524;12.052;2022-12-18T02:40:19;4.00;;;1.90;;
58366;SDS011;57745;42.524;12.052;2022-12-18T02:42:46;3.13;;;1.90;;
58366;SDS011;57745;42.524;12.052;2022-12-18T02:45:12;2.35;;;1.60;;
58366;SDS011;57745;42.524;12.052;2022-12-18T02:47:39;5.05;;;2.58;;
58366;SDS011;57745;42.524;12.052;2022-12-18T02:50:16;3.10;;;1.98;;
58366;SDS011;57745;42.524;12.052;2022-12-18T03:01:16;3.58;;;1.60;;
58366;SDS011;57745;42.524;12.052;2022-12-18T03:03:54;2.58;;;1.55;;
58366;SDS011;57745;42.524;12.052;2022-12-18T03:06:32;2.97;;;1.75;;
58366;SDS011;57745;42.524;12.052;2022-12-18T03:09:03;2.60;;;1.60;;
58366;SDS011;57745;42.524;12.052;2022-12-18T03:11:35;3.90;;;1.60;;
58366;SDS011;57745;42.524;12.052;2022-12-18T03:14:25;3.38;;;1.88;;
58366;SDS011;57745;42.524;12.052;2022-12-18T03:16:57;2.95;;;1.40;;
58366;SDS011;57745;42.524;12.052;2022-12-18T03:19:26;2.72;;;1.40;;
58366;SDS011;57745;42.524;12.052;2022-12-18T03:21:56;3.42;;;1.80;;
58366;SDS011;57745;42.524;12.052;2022-12-18T03:24:24;3.60;;;1.50;;
58366;SDS011;57745;42.524;12.052;2022-12-18T03:26:54;2.53;;;1.48;;
58366;SDS011;57745;42.524;12.052;2022-12-18T03:30:06;3.35;;;1.40;;
58366;SDS011;57745;42.524;12.052;2022-12-18T03:32:26;2.42;;;1.60;;
58366;SDS011;57745;42.524;12.052;2022-12-18T03:34:56;2.78;;;1.27;;
58366;SDS011;57745;42.524;12.052;2022-12-18T03:37:27;2.92;;;1.60;;
58366;SDS011;57745;42.524;12.052;2022-12-18T03:39:52;2.85;;;1.73;;
58366;SDS011;57745;42.524;12.052;2022-12-18T03:43:19;4.15;;;1.50;;
58366;SDS011;57745;42.524;12.052;2022-12-18T03:47:57;3.35;;;1.90;;
58366;SDS011;57745;42.524;12.052;2022-12-18T03:50:40;2.10;;;1.50;;
58366;SDS011;57745;42.524;12.052;2022-12-18T03:56:03;3.92;;;1.90;;
58366;SDS011;57745;42.524;12.052;2022-12-18T03:58:30;5.60;;;1.58;;
58366;SDS011;57745;42.524;12.052;2022-12-18T04:00:59;2.20;;;1.20;;
58366;SDS011;57745;42.524;12.052;2022-12-18T04:03:29;4.78;;;1.65;;
58366;SDS011;57745;42.524;12.052;2022-12-18T04:05:57;3.38;;;1.63;;
58366;SDS011;57745;42.524;12.052;2022-12-18T04:08:25;2.50;;;1.50;;
58366;SDS011;57745;42.524;12.052;2022-12-18T04:10:52;2.78;;;1.75;;
58366;SDS011;57745;42.524;12.052;2022-12-18T04:13:21;3.75;;;1.50;;
58366;SDS011;57745;42.524;12.052;2022-12-18T04:15:53;2.65;;;1.58;;
58366;SDS011;57745;42.524;12.052;2022-12-18T04:18:18;2.45;;;1.58;;
58366;SDS011;57745;42.524;12.052;2022-12-18T04:20:44;2.10;;;1.45;;
58366;SDS011;57745;42.524;12.052;2022-12-18T04:23:10;2.47;;;1.48;;
58366;SDS011;57745;42.524;12.052;2022-12-18T04:25:36;2.30;;;1.52;;
58366;SDS011;57745;42.524;12.052;2022-12-18T04:28:01;2.50;;;1.60;;
58366;SDS011;57745;42.524;12.052;2022-12-18T04:30:26;2.30;;;1.40;;
58366;SDS011;57745;42.524;12.052;2022-12-18T04:32:52;3.05;;;1.60;;
58366;SDS011;57745;42.524;12.052;2022-12-18T04:35:17;2.72;;;1.58;;
58366;SDS011;57745;42.524;12.052;2022-12-18T04:37:43;4.03;;;1.42;;
58366;SDS011;57745;42.524;12.052;2022-12-18T04:40:08;4.85;;;1.55;;
58366;SDS011;57745;42.524;12.052;2022-12-18T04:42:34;2.50;;;1.50;;
58366;SDS011;57745;42.524;12.052;2022-12-18T04:45:00;2.60;;;1.40;;
58366;SDS011;57745;42.524;12.052;2022-12-18T04:47:25;3.17;;;1.67;;
58366;SDS011;57745;42.524;12.052;2022-12-18T04:49:51;1.98;;;1.42;;
58366;SDS011;57745;42.524;12.052;2022-12-18T04:52:16;5.28;;;1.67;;
58366;SDS011;57745;42.524;12.052;2022-12-18T04:54:42;4.10;;;1.75;;
58366;SDS011;57745;42.524;12.052;2022-12-18T04:57:07;3.88;;;1.90;;
58366;SDS011;57745;42.524;12.052;2022-12-18T04:59:32;3.17;;;1.60;;
58366;SDS011;57745;42.524;12.052;2022-12-18T05:01:58;2.05;;;1.60;;
58366;SDS011;57745;42.524;12.052;2022-12-18T05:04:26;2.92;;;1.70;;
58366;SDS011;57745;42.524;12.052;2022-12-18T05:06:51;3.72;;;1.83;;
58366;SDS011;57745;42.524;12.052;2022-12-18T05:09:17;3.55;;;2.20;;
58366;SDS011;57745;42.524;12.052;2022-12-18T05:11:44;2.35;;;1.60;;
58366;SDS011;57745;42.524;12.052;2022-12-18T05:14:09;2.67;;;1.83;;
58366;SDS011;57745;42.524;12.052;2022-12-18T05:16:37;3.03;;;1.88;;
58366;SDS011;57745;42.524;12.052;2022-12-18T05:19:02;2.38;;;1.80;;
58366;SDS011;57745;42.524;12.052;2022-12-18T05:21:30;3.83;;;1.55;;
58366;SDS011;57745;42.524;12.052;2022-12-18T05:23:56;2.05;;;1.70;;
58366;SDS011;57745;42.524;12.052;2022-12-18T05:26:21;3.22;;;1.70;;
58366;SDS011;57745;42.524;12.052;2022-12-18T05:28:47;3.58;;;1.70;;
58366;SDS011;57745;42.524;12.052;2022-12-18T05:31:12;4.13;;;1.70;;
58366;SDS011;57745;42.524;12.052;2022-12-18T05:33:38;4.85;;;2.05;;
58366;SDS011;57745;42.524;12.052;2022-12-18T05:36:05;3.40;;;1.73;;
58366;SDS011;57745;42.524;12.052;2022-12-18T05:38:32;2.83;;;1.58;;
58366;SDS011;57745;42.524;12.052;2022-12-18T05:40:59;4.55;;;2.00;;
58366;SDS011;57745;42.524;12.052;2022-12-18T05:43:25;2.60;;;1.65;;
58366;SDS011;57745;42.524;12.052;2022-12-18T05:45:54;3.78;;;1.70;;
58366;SDS011;57745;42.524;12.052;2022-12-18T05:48:20;3.83;;;1.80;;
58366;SDS011;57745;42.524;12.052;2022-12-18T05:50:47;2.60;;;1.70;;
58366;SDS011;57745;42.524;12.052;2022-12-18T05:53:15;2.92;;;1.90;;
58366;SDS011;57745;42.524;12.052;2022-12-18T05:55:47;1.73;;;1.60;;
58366;SDS011;57745;42.524;12.052;2022-12-18T05:58:18;2.42;;;1.50;;
58366;SDS011;57745;42.524;12.052;2022-12-18T06:00:44;2.25;;;1.67;;
58366;SDS011;57745;42.524;12.052;2022-12-18T06:03:13;2.92;;;1.73;;
58366;SDS011;57745;42.524;12.052;2022-12-18T06:05:40;3.28;;;1.90;;
58366;SDS011;57745;42.524;12.052;2022-12-18T06:08:08;2.10;;;1.60;;
58366;SDS011;57745;42.524;12.052;2022-12-18T06:10:34;3.83;;;1.63;;
58366;SDS011;57745;42.524;12.052;2022-12-18T06:12:59;3.35;;;2.30;;
58366;SDS011;57745;42.524;12.052;2022-12-18T06:15:25;2.95;;;1.70;;
58366;SDS011;57745;42.524;12.052;2022-12-18T06:17:50;3.05;;;1.58;;
58366;SDS011;57745;42.524;12.052;2022-12-18T06:20:16;2.63;;;1.70;;
58366;SDS011;57745;42.524;12.052;2022-12-18T06:22:41;3.08;;;1.90;;
58366;SDS011;57745;42.524;12.052;2022-12-18T06:25:07;4.10;;;2.00;;
58366;SDS011;57745;42.524;12.052;2022-12-18T06:27:33;4.32;;;2.15;;
58366;SDS011;57745;42.524;12.052;2022-12-18T06:29:59;3.28;;;2.13;;
58366;SDS011;57745;42.524;12.052;2022-12-18T06:32:25;3.20;;;2.17;;
58366;SDS011;57745;42.524;12.052;2022-12-18T06:34:51;2.08;;;1.70;;
58366;SDS011;57745;42.524;12.052;2022-12-18T06:37:16;2.47;;;1.60;;
58366;SDS011;57745;42.524;12.052;2022-12-18T06:39:42;3.40;;;2.00;;
58366;SDS011;57745;42.524;12.052;2022-12-18T06:42:07;2.15;;;1.80;;
58366;SDS011;57745;42.524;12.052;2022-12-18T06:44:33;2.80;;;2.13;;
58366;SDS011;57745;42.524;12.052;2022-12-18T06:46:58;2.70;;;2.10;;
58366;SDS011;57745;42.524;12.052;2022-12-18T06:49:23;4.07;;;2.55;;
58366;SDS011;57745;42.524;12.052;2022-12-18T06:51:49;4.18;;;2.85;;
58366;SDS011;57745;42.524;12.052;2022-12-18T06:54:14;4.65;;;3.00;;
58366;SDS011;57745;42.524;12.052;2022-12-18T06:56:40;3.85;;;2.70;;
58366;SDS011;57745;42.524;12.052;2022-12-18T06:59:05;5.07;;;3.17;;
58366;SDS011;57745;42.524;12.052;2022-12-18T07:01:31;4.00;;;3.03;;
58366;SDS011;57745;42.524;12.052;2022-12-18T07:03:56;4.53;;;3.30;;
58366;SDS011;57745;42.524;12.052;2022-12-18T07:06:23;4.63;;;3.30;;
58366;SDS011;57745;42.524;12.052;2022-12-18T07:08:50;4.68;;;3.13;;
58366;SDS011;57745;42.524;12.052;2022-12-18T07:11:18;5.50;;;3.10;;
58366;SDS011;57745;42.524;12.052;2022-12-18T07:13:44;4.32;;;3.03;;
58366;SDS011;57745;42.524;12.052;2022-12-18T07:16:16;4.90;;;2.97;;
58366;SDS011;57745;42.524;12.052;2022-12-18T07:18:44;4.60;;;2.88;;
58366;SDS011;57745;42.524;12.052;2022-12-18T07:21:11;3.90;;;2.58;;
58366;SDS011;57745;42.524;12.052;2022-12-18T07:23:41;4.05;;;2.78;;
58366;SDS011;57745;42.524;12.052;2022-12-18T07:26:08;4.18;;;2.35;;
58366;SDS011;57745;42.524;12.052;2022-12-18T07:28:37;4.63;;;2.60;;
58366;SDS011;57745;42.524;12.052;2022-12-18T07:31:07;5.25;;;2.38;;
58366;SDS011;57745;42.524;12.052;2022-12-18T07:33:35;4.50;;;2.70;;
58366;SDS011;57745;42.524;12.052;2022-12-18T07:36:01;3.20;;;2.28;;
58366;SDS011;57745;42.524;12.052;2022-12-18T07:38:32;2.60;;;1.92;;
58366;SDS011;57745;42.524;12.052;2022-12-18T07:41:05;2.83;;;2.05;;
58366;SDS011;57745;42.524;12.052;2022-12-18T07:43:32;2.80;;;2.00;;
58366;SDS011;57745;42.524;12.052;2022-12-18T07:45:58;2.90;;;1.67;;
58366;SDS011;57745;42.524;12.052;2022-12-18T07:48:24;3.28;;;1.90;;
58366;SDS011;57745;42.524;12.052;2022-12-18T07:50:50;2.55;;;2.00;;
58366;SDS011;57745;42.524;12.052;2022-12-18T07:53:15;2.85;;;1.92;;
58366;SDS011;57745;42.524;12.052;2022-12-18T07:55:41;3.38;;;2.10;;
58366;SDS011;57745;42.524;12.052;2022-12-18T07:58:07;4.93;;;2.90;;
58366;SDS011;57745;42.524;12.052;2022-12-18T08:00:33;3.65;;;2.40;;
58366;SDS011;57745;42.524;12.052;2022-12-18T08:02:58;3.95;;;1.90;;
58366;SDS011;57745;42.524;12.052;2022-12-18T08:05:24;3.08;;;2.13;;
58366;SDS011;57745;42.524;12.052;2022-12-18T08:07:50;4.15;;;2.10;;
58366;SDS011;57745;42.524;12.052;2022-12-18T08:10:16;3.50;;;2.40;;
58366;SDS011;57745;42.524;12.052;2022-12-18T08:12:41;4.00;;;2.40;;
58366;SDS011;57745;42.524;12.052;2022-12-18T08:15:08;5.13;;;2.90;;
58366;SDS011;57745;42.524;12.052;2022-12-18T08:17:34;2.47;;;2.10;;
58366;SDS011;57745;42.524;12.052;2022-12-18T08:19:59;3.47;;;2.00;;
58366;SDS011;57745;42.524;12.052;2022-12-18T08:22:25;2.55;;;2.10;;
58366;SDS011;57745;42.524;12.052;2022-12-18T08:24:50;2.83;;;1.88;;
58366;SDS011;57745;42.524;12.052;2022-12-18T08:27:16;3.33;;;2.30;;
58366;SDS011;57745;42.524;12.052;2022-12-18T08:29:41;6.20;;;2.47;;
58366;SDS011;57745;42.524;12.052;2022-12-18T08:32:07;2.72;;;2.10;;
58366;SDS011;57745;42.524;12.052;2022-12-18T08:34:32;2.95;;;2.10;;
58366;SDS011;57745;42.524;12.052;2022-12-18T08:36:58;3.22;;;2.22;;
58366;SDS011;57745;42.524;12.052;2022-12-18T08:39:24;2.70;;;2.10;;
58366;SDS011;57745;42.524;12.052;2022-12-18T08:41:49;3.10;;;1.90;;
58366;SDS011;57745;42.524;12.052;2022-12-18T08:44:33;4.45;;;2.05;;
58366;SDS011;57745;42.524;12.052;2022-12-18T08:47:05;2.65;;;1.90;;
58366;SDS011;57745;42.524;12.052;2022-12-18T08:49:32;4.28;;;2.47;;
58366;SDS011;57745;42.524;12.052;2022-12-18T08:51:58;3.55;;;2.15;;
58366;SDS011;57745;42.524;12.052;2022-12-18T08:54:24;3.70;;;2.40;;
58366;SDS011;57745;42.524;12.052;2022-12-18T08:56:50;4.10;;;2.58;;
58366;SDS011;57745;42.524;12.052;2022-12-18T08:59:16;4.35;;;2.55;;
58366;SDS011;57745;42.524;12.052;2022-12-18T09:01:42;4.95;;;2.75;;
58366;SDS011;57745;42.524;12.052;2022-12-18T09:04:08;3.05;;;2.22;;
58366;SDS011;57745;42.524;12.052;2022-12-18T09:06:34;3.22;;;2.25;;
58366;SDS011;57745;42.524;12.052;2022-12-18T09:09:00;3.70;;;2.17;;
58366;SDS011;57745;42.524;12.052;2022-12-18T09:11:27;3.05;;;2.17;;
58366;SDS011;57745;42.524;12.052;2022-12-18T09:13:53;3.97;;;2.15;;
58366;SDS011;57745;42.524;12.052;2022-12-18T09:16:20;3.97;;;2.40;;
58366;SDS011;57745;42.524;12.052;2022-12-18T09:18:46;4.25;;;2.00;;
58366;SDS011;57745;42.524;12.052;2022-12-18T09:21:16;4.32;;;2.20;;
58366;SDS011;57745;42.524;12.052;2022-12-18T09:26:14;3.10;;;2.05;;
58366;SDS011;57745;42.524;12.052;2022-12-18T09:28:40;4.00;;;2.42;;
58366;SDS011;57745;42.524;12.052;2022-12-18T09:31:06;4.85;;;2.90;;
58366;SDS011;57745;42.524;12.052;2022-12-18T09:33:33;4.38;;;2.70;;
58366;SDS011;57745;42.524;12.052;2022-12-18T09:36:01;6.30;;;3.00;;
58366;SDS011;57745;42.524;12.052;2022-12-18T09:38:28;5.70;;;3.40;;
58366;SDS011;57745;42.524;12.052;2022-12-18T09:40:55;5.78;;;3.28;;
58366;SDS011;57745;42.524;12.052;2022-12-18T09:43:26;5.03;;;3.03;;
58366;SDS011;57745;42.524;12.052;2022-12-18T09:46:10;4.57;;;3.03;;
58366;SDS011;57745;42.524;12.052;2022-12-18T09:48:50;6.07;;;3.20;;
58366;SDS011;57745;42.524;12.052;2022-12-18T09:51:22;5.15;;;3.10;;
58366;SDS011;57745;42.524;12.052;2022-12-18T09:53:56;5.93;;;3.20;;
58366;SDS011;57745;42.524;12.052;2022-12-18T09:56:27;5.97;;;3.15;;
58366;SDS011;57745;42.524;12.052;2022-12-18T09:59:01;4.32;;;3.17;;
58366;SDS011;57745;42.524;12.052;2022-12-18T10:01:29;4.93;;;3.13;;
58366;SDS011;57745;42.524;12.052;2022-12-18T10:03:56;5.05;;;3.15;;
58366;SDS011;57745;42.524;12.052;2022-12-18T10:06:31;4.25;;;3.03;;
58366;SDS011;57745;42.524;12.052;2022-12-18T10:09:09;5.18;;;2.92;;
58366;SDS011;57745;42.524;12.052;2022-12-18T10:12:45;4.85;;;3.03;;
58366;SDS011;57745;42.524;12.052;2022-12-18T10:21:03;4.45;;;3.10;;
58366;SDS011;57745;42.524;12.052;2022-12-18T10:26:26;4.25;;;2.58;;
58366;SDS011;57745;42.524;12.052;2022-12-18T10:28:51;3.42;;;2.53;;
58366;SDS011;57745;42.524;12.052;2022-12-18T10:31:20;6.43;;;2.78;;
58366;SDS011;57745;42.524;12.052;2022-12-18T10:33:48;6.80;;;2.40;;
58366;SDS011;57745;42.524;12.052;2022-12-18T10:36:14;4.00;;;2.47;;
58366;SDS011;57745;42.524;12.052;2022-12-18T10:38:40;5.60;;;2.60;;
58366;SDS011;57745;42.524;12.052;2022-12-18T10:41:08;4.57;;;2.13;;
58366;SDS011;57745;42.524;12.052;2022-12-18T10:46:49;4.97;;;2.00;;
58366;SDS011;57745;42.524;12.052;2022-12-18T10:49:27;3.65;;;1.92;;
58366;SDS011;57745;42.524;12.052;2022-12-18T10:54:46;3.80;;;2.30;;
58366;SDS011;57745;42.524;12.052;2022-12-18T10:57:15;3.42;;;1.90;;
58366;SDS011;57745;42.524;12.052;2022-12-18T10:59:55;4.32;;;2.20;;
58366;SDS011;57745;42.524;12.052;2022-12-18T11:02:26;3.50;;;2.17;;
58366;SDS011;57745;42.524;12.052;2022-12-18T11:05:00;3.10;;;2.20;;
58366;SDS011;57745;42.524;12.052;2022-12-18T11:07:26;2.67;;;1.95;;
58366;SDS011;57745;42.524;12.052;2022-12-18T11:10:18;4.72;;;2.85;;
58366;SDS011;57745;42.524;12.052;2022-12-18T11:12:45;3.40;;;2.00;;
58366;SDS011;57745;42.524;12.052;2022-12-18T11:15:16;5.18;;;1.90;;
58366;SDS011;57745;42.524;12.052;2022-12-18T11:17:46;3.40;;;2.10;;
58366;SDS011;57745;42.524;12.052;2022-12-18T11:20:29;2.90;;;1.75;;
58366;SDS011;57745;42.524;12.052;2022-12-18T11:23:04;3.22;;;1.92;;
58366;SDS011;57745;42.524;12.052;2022-12-18T11:25:35;2.45;;;2.25;;
58366;SDS011;57745;42.524;12.052;2022-12-18T11:28:05;3.70;;;2.28;;
58366;SDS011;57745;42.524;12.052;2022-12-18T11:31:08;2.20;;;1.70;;
58366;SDS011;57745;42.524;12.052;2022-12-18T11:33:33;3.95;;;1.92;;
58366;SDS011;57745;42.524;12.052;2022-12-18T11:36:00;2.55;;;1.70;;
58366;SDS011;57745;42.524;12.052;2022-12-18T11:43:31;1.63;;;1.35;;
58366;SDS011;57745;42.524;12.052;2022-12-18T11:46:08;2.67;;;1.80;;
58366;SDS011;57745;42.524;12.052;2022-12-18T11:48:44;2.55;;;1.40;;
58366;SDS011;57745;42.524;12.052;2022-12-18T11:51:23;2.85;;;1.77;;
58366;SDS011;57745;42.524;12.052;2022-12-18T11:53:53;2.88;;;1.45;;
58366;SDS011;57745;42.524;12.052;2022-12-18T11:56:29;2.97;;;1.67;;
58366;SDS011;57745;42.524;12.052;2022-12-18T12:01:52;2.47;;;1.50;;
58366;SDS011;57745;42.524;12.052;2022-12-18T12:04:31;6.70;;;1.70;;
58366;SDS011;57745;42.524;12.052;2022-12-18T12:07:17;2.13;;;1.40;;
58366;SDS011;57745;42.524;12.052;2022-12-18T12:09:56;2.63;;;1.40;;
58366;SDS011;57745;42.524;12.052;2022-12-18T12:17:52;2.25;;;1.60;;
58366;SDS011;57745;42.524;12.052;2022-12-18T12:26:07;2.15;;;1.50;;
58366;SDS011;57745;42.524;12.052;2022-12-18T12:28:47;3.67;;;1.65;;
58366;SDS011;57745;42.524;12.052;2022-12-18T12:31:28;1.55;;;1.25;;
58366;SDS011;57745;42.524;12.052;2022-12-18T12:34:23;2.30;;;1.20;;
58366;SDS011;57745;42.524;12.052;2022-12-18T12:39:43;2.05;;;1.50;;
58366;SDS011;57745;42.524;12.052;2022-12-18T12:42:16;2.65;;;1.52;;
58366;SDS011;57745;42.524;12.052;2022-12-18T12:45:13;2.80;;;1.60;;
58366;SDS011;57745;42.524;12.052;2022-12-18T12:48:01;2.10;;;1.45;;
58366;SDS011;57745;42.524;12.052;2022-12-18T12:50:29;2.33;;;1.70;;
58366;SDS011;57745;42.524;12.052;2022-12-18T12:52:58;2.40;;;1.73;;
58366;SDS011;57745;42.524;12.052;2022-12-18T12:55:30;2.03;;;1.58;;
58366;SDS011;57745;42.524;12.052;2022-12-18T13:03:44;4.30;;;2.75;;
58366;SDS011;57745;42.524;12.052;2022-12-18T13:09:03;3.97;;;2.22;;
58366;SDS011;57745;42.524;12.052;2022-12-18T13:14:23;2.60;;;1.92;;
58366;SDS011;57745;42.524;12.052;2022-12-18T13:16:51;3.05;;;2.15;;
58366;SDS011;57745;42.524;12.052;2022-12-18T13:19:23;5.03;;;2.42;;
58366;SDS011;57745;42.524;12.052;2022-12-18T13:21:55;3.20;;;2.10;;
58366;SDS011;57745;42.524;12.052;2022-12-18T13:24:27;2.78;;;2.05;;
58366;SDS011;57745;42.524;12.052;2022-12-18T13:26:56;3.80;;;2.33;;
58366;SDS011;57745;42.524;12.052;2022-12-18T13:29:44;4.03;;;2.20;;
58366;SDS011;57745;42.524;12.052;2022-12-18T13:32:19;3.55;;;2.20;;
58366;SDS011;57745;42.524;12.052;2022-12-18T13:34:46;2.92;;;2.30;;
58366;SDS011;57745;42.524;12.052;2022-12-18T13:39:56;4.60;;;2.38;;
58366;SDS011;57745;42.524;12.052;2022-12-18T13:48:32;3.47;;;2.10;;
58366;SDS011;57745;42.524;12.052;2022-12-18T13:51:02;4.03;;;2.03;;
58366;SDS011;57745;42.524;12.052;2022-12-18T13:53:33;3.92;;;2.47;;
58366;SDS011;57745;42.524;12.052;2022-12-18T13:56:01;3.55;;;2.55;;
58366;SDS011;57745;42.524;12.052;2022-12-18T13:58:28;5.50;;;2.45;;
58366;SDS011;57745;42.524;12.052;2022-12-18T14:00:53;3.42;;;2.30;;
58366;SDS011;57745;42.524;12.052;2022-12-18T14:03:26;6.43;;;3.10;;
58366;SDS011;57745;42.524;12.052;2022-12-18T14:05:54;9.13;;;4.00;;
58366;SDS011;57745;42.524;12.052;2022-12-18T14:08:23;7.75;;;3.88;;
58366;SDS011;57745;42.524;12.052;2022-12-18T14:10:52;7.10;;;3.38;;
58366;SDS011;57745;42.524;12.052;2022-12-18T14:13:26;6.57;;;3.15;;
58366;SDS011;57745;42.524;12.052;2022-12-18T14:15:55;6.82;;;3.60;;
58366;SDS011;57745;42.524;12.052;2022-12-18T14:21:04;6.30;;;3.67;;
58366;SDS011;57745;42.524;12.052;2022-12-18T14:23:32;7.20;;;3.67;;
58366;SDS011;57745;42.524;12.052;2022-12-18T14:26:00;7.00;;;3.53;;
58366;SDS011;57745;42.524;12.052;2022-12-18T14:28:59;6.78;;;3.75;;
58366;SDS011;57745;42.524;12.052;2022-12-18T14:31:43;8.10;;;3.58;;
58366;SDS011;57745;42.524;12.052;2022-12-18T14:34:14;8.43;;;4.25;;
58366;SDS011;57745;42.524;12.052;2022-12-18T14:36:41;6.78;;;3.65;;
58366;SDS011;57745;42.524;12.052;2022-12-18T14:39:13;7.75;;;3.55;;
58366;SDS011;57745;42.524;12.052;2022-12-18T14:41:43;6.82;;;3.60;;
58366;SDS011;57745;42.524;12.052;2022-12-18T14:44:10;7.45;;;3.58;;
58366;SDS011;57745;42.524;12.052;2022-12-18T14:46:42;6.57;;;3.72;;
58366;SDS011;57745;42.524;12.052;2022-12-18T14:51:59;6.88;;;3.72;;
58366;SDS011;57745;42.524;12.052;2022-12-18T14:54:28;8.30;;;3.75;;
58366;SDS011;57745;42.524;12.052;2022-12-18T14:59:25;9.10;;;4.30;;
58366;SDS011;57745;42.524;12.052;2022-12-18T15:02:10;7.85;;;3.80;;
58366;SDS011;57745;42.524;12.052;2022-12-18T15:05:00;7.20;;;4.03;;
58366;SDS011;57745;42.524;12.052;2022-12-18T15:07:44;7.57;;;4.20;;
58366;SDS011;57745;42.524;12.052;2022-12-18T15:12:48;8.35;;;4.50;;
58366;SDS011;57745;42.524;12.052;2022-12-18T15:15:43;8.10;;;4.15;;
58366;SDS011;57745;42.524;12.052;2022-12-18T15:20:45;7.43;;;4.32;;
58366;SDS011;57745;42.524;12.052;2022-12-18T15:23:21;12.77;;;4.85;;
58366;SDS011;57745;42.524;12.052;2022-12-18T15:25:55;9.27;;;4.45;;
58366;SDS011;57745;42.524;12.052;2022-12-18T15:28:28;8.43;;;4.30;;
58366;SDS011;57745;42.524;12.052;2022-12-18T15:33:33;9.10;;;4.80;;
58366;SDS011;57745;42.524;12.052;2022-12-18T15:36:04;7.57;;;4.13;;
58366;SDS011;57745;42.524;12.052;2022-12-18T15:38:36;9.43;;;4.20;;
58366;SDS011;57745;42.524;12.052;2022-12-18T15:41:02;8.80;;;4.43;;
58366;SDS011;57745;42.524;12.052;2022-12-18T15:43:29;7.72;;;4.10;;
58366;SDS011;57745;42.524;12.052;2022-12-18T15:48:35;8.32;;;4.55;;
58366;SDS011;57745;42.524;12.052;2022-12-18T15:53:46;7.63;;;4.55;;
58366;SDS011;57745;42.524;12.052;2022-12-18T15:56:14;8.93;;;4.43;;
58366;SDS011;57745;42.524;12.052;2022-12-18T15:58:59;7.93;;;4.75;;
58366;SDS011;57745;42.524;12.052;2022-12-18T16:01:26;7.20;;;4.65;;
58366;SDS011;57745;42.524;12.052;2022-12-18T16:03:54;9.20;;;5.18;;
58366;SDS011;57745;42.524;12.052;2022-12-18T16:06:20;8.82;;;5.55;;
58366;SDS011;57745;42.524;12.052;2022-12-18T16:08:46;11.70;;;5.85;;
58366;SDS011;57745;42.524;12.052;2022-12-18T16:14:12;8.98;;;5.32;;
58366;SDS011;57745;42.524;12.052;2022-12-18T16:16:58;6.60;;;4.60;;
58366;SDS011;57745;42.524;12.052;2022-12-18T16:19:26;7.43;;;4.90;;
58366;SDS011;57745;42.524;12.052;2022-12-18T16:21:52;9.57;;;5.45;;
58366;SDS011;57745;42.524;12.052;2022-12-18T16:24:21;8.13;;;4.88;;
58366;SDS011;57745;42.524;12.052;2022-12-18T16:26:51;7.05;;;4.95;;
58366;SDS011;57745;42.524;12.052;2022-12-18T16:29:18;8.02;;;5.05;;
58366;SDS011;57745;42.524;12.052;2022-12-18T16:31:44;9.95;;;4.22;;
58366;SDS011;57745;42.524;12.052;2022-12-18T16:34:28;6.30;;;4.15;;
58366;SDS011;57745;42.524;12.052;2022-12-18T16:36:56;7.53;;;4.90;;
58366;SDS011;57745;42.524;12.052;2022-12-18T16:39:26;7.82;;;4.22;;